createdAt,value
2023-02-05T00:01:57.046Z,100451.78
2023-02-05T00:04:24.545Z,100460.47
2023-02-05T00:06:51.695Z,100463.75
2023-02-05T00:09:18.851Z,100473.16
2023-02-05T00:11:46.258Z,100469.97
2023-02-05T00:14:13.409Z,100485.94
2023-02-05T00:16:40.597Z,100479.88
2023-02-05T00:19:08.058Z,100468.38
2023-02-05T00:21:35.257Z,100471.78
2023-02-05T00:24:02.397Z,100472.97
2023-02-05T00:26:29.827Z,100476.22
2023-02-05T00:28:57.010Z,100479.44
2023-02-05T00:31:24.397Z,100482.13
2023-02-05T00:33:51.999Z,100495.34
2023-02-05T00:36:19.841Z,100493.06
2023-02-05T00:38:47.203Z,100485.75
2023-02-05T00:41:14.854Z,100497.31
2023-02-05T00:43:42.572Z,100496.81
2023-02-05T00:46:10.500Z,100494.97
2023-02-05T00:48:38.113Z,100501.41
2023-02-05T00:51:05.359Z,100510.53
2023-02-05T00:53:32.848Z,100518.22
2023-02-05T00:56:00.290Z,100514.34
2023-02-05T00:58:27.607Z,100515.63
2023-02-05T01:00:54.747Z,100517.28
2023-02-05T01:03:22.199Z,100524.97
2023-02-05T01:05:49.357Z,100508.41
2023-02-05T01:08:16.628Z,100513.62
2023-02-05T01:10:45.489Z,100516.44
2023-02-05T01:13:12.797Z,100518.00
2023-02-05T01:15:40.134Z,100520.53
2023-02-05T01:18:07.630Z,100532.72
2023-02-05T01:20:38.556Z,100531.19
2023-02-05T01:23:05.805Z,100523.97
2023-02-05T01:25:33.509Z,100529.56
2023-02-05T01:28:00.877Z,100513.59
2023-02-05T01:30:28.100Z,100520.19
2023-02-05T01:32:55.529Z,100518.03
2023-02-05T01:35:22.659Z,100512.16
2023-02-05T01:37:49.797Z,100504.34
2023-02-05T01:40:17.366Z,100506.84
2023-02-05T01:42:44.676Z,100508.37
2023-02-05T01:45:29.681Z,100503.97
2023-02-05T01:48:00.970Z,100500.06
2023-02-05T01:50:29.380Z,100500.06
2023-02-05T01:52:57.438Z,100496.47
2023-02-05T01:55:24.601Z,100502.69
2023-02-05T01:57:51.763Z,100498.09
2023-02-05T02:00:19.302Z,100503.22
2023-02-05T02:02:50.117Z,100506.78
2023-02-05T02:05:17.802Z,100526.97
2023-02-05T02:07:45.511Z,100525.63
2023-02-05T02:10:13.830Z,100526.50
2023-02-05T02:12:41.488Z,100524.87
2023-02-05T02:15:16.523Z,100526.31
2023-02-05T02:17:44.920Z,100523.72
2023-02-05T02:20:19.257Z,100522.53
2023-02-05T02:22:55.493Z,100527.53
2023-02-05T02:25:41.949Z,100511.81
2023-02-05T02:28:11.900Z,100530.66
2023-02-05T02:30:48.299Z,100521.53
2023-02-05T02:33:20.341Z,100522.38
2023-02-05T02:35:59.366Z,100521.66
2023-02-05T02:38:28.366Z,100522.28
2023-02-05T02:41:08.359Z,100521.84
2023-02-05T02:43:52.334Z,100525.41
2023-02-05T02:46:30.626Z,100524.84
2023-02-05T02:48:58.479Z,100537.25
2023-02-05T02:51:25.952Z,100538.37
2023-02-05T02:53:55.269Z,100546.81
2023-02-05T02:56:22.748Z,100545.19
2023-02-05T02:58:51.004Z,100551.91
2023-02-05T03:01:19.596Z,100550.34
2023-02-05T03:03:51.379Z,100551.22
2023-02-05T03:06:18.810Z,100561.34
2023-02-05T03:08:52.396Z,100558.72
2023-02-05T03:11:19.864Z,100562.00
2023-02-05T03:13:47.105Z,100558.31
2023-02-05T03:16:14.833Z,100553.09
2023-02-05T03:18:42.311Z,100559.59
2023-02-05T03:21:10.694Z,100560.13
2023-02-05T03:23:39.083Z,100562.56
2023-02-05T03:26:19.023Z,100562.66
2023-02-05T03:28:46.290Z,100571.25
2023-02-05T03:31:15.814Z,100566.44
2023-02-05T03:34:01.854Z,100575.84
2023-02-05T03:36:29.530Z,100576.97
2023-02-05T03:39:02.711Z,100601.72
2023-02-05T03:41:50.809Z,100606.28
2023-02-05T03:44:40.094Z,100593.59
2023-02-05T03:47:27.120Z,100603.53
2023-02-05T03:50:17.603Z,100593.28
2023-02-05T03:52:50.644Z,100589.41
2023-02-05T03:55:21.274Z,100600.47
2023-02-05T03:57:50.927Z,100604.94
2023-02-05T04:00:18.383Z,100597.34
2023-02-05T04:02:45.985Z,100610.44
2023-02-05T04:05:13.516Z,100607.16
2023-02-05T04:07:41.210Z,100615.59
2023-02-05T04:10:09.243Z,100615.50
2023-02-05T04:12:37.638Z,100617.53
2023-02-05T04:15:05.540Z,100619.44
2023-02-05T04:17:33.006Z,100620.00
2023-02-05T04:20:00.315Z,100610.81
2023-02-05T04:22:27.736Z,100620.66
2023-02-05T04:24:55.201Z,100629.12
2023-02-05T04:27:22.468Z,100628.09
2023-02-05T04:29:50.040Z,100626.19
2023-02-05T04:32:17.525Z,100636.09
2023-02-05T04:34:44.691Z,100639.84
2023-02-05T04:37:12.247Z,100633.66
2023-02-05T04:39:39.700Z,100642.72
2023-02-05T04:42:06.856Z,100630.84
2023-02-05T04:44:34.017Z,100651.88
2023-02-05T04:47:01.435Z,100644.56
2023-02-05T04:49:28.678Z,100639.44
2023-02-05T04:51:55.843Z,100643.50
2023-02-05T04:54:23.307Z,100644.06
2023-02-05T04:56:50.558Z,100658.97
2023-02-05T04:59:17.934Z,100655.31
2023-02-05T05:01:45.473Z,100654.13
2023-02-05T05:04:12.606Z,100653.44
2023-02-05T05:06:39.758Z,100660.72
2023-02-05T05:09:07.197Z,100665.53
2023-02-05T05:11:34.343Z,100666.16
2023-02-05T05:14:01.523Z,100658.44
2023-02-05T05:16:28.972Z,100672.09
2023-02-05T05:18:56.136Z,100671.09
2023-02-05T05:21:23.280Z,100682.56
2023-02-05T05:23:50.722Z,100684.41
2023-02-05T05:26:17.879Z,100691.31
2023-02-05T05:28:45.018Z,100688.84
2023-02-05T05:31:16.869Z,100689.66
2023-02-05T05:33:44.180Z,100696.03
2023-02-05T05:36:11.486Z,100698.03
2023-02-05T05:38:38.973Z,100693.81
2023-02-05T05:41:24.626Z,100700.34
2023-02-05T05:43:52.775Z,100699.81
2023-02-05T05:46:24.357Z,100699.09
2023-02-05T05:48:52.819Z,100695.19
2023-02-05T05:51:20.369Z,100705.09
2023-02-05T05:53:47.579Z,100697.09
2023-02-05T05:56:15.475Z,100709.56
2023-02-05T05:58:42.971Z,100714.84
2023-02-05T06:01:10.518Z,100709.81
2023-02-05T06:03:38.055Z,100716.47
2023-02-05T06:06:05.828Z,100719.44
2023-02-05T06:08:33.118Z,100727.06
2023-02-05T06:11:00.544Z,100727.72
2023-02-05T06:13:27.709Z,100738.50
2023-02-05T06:15:54.942Z,100742.47
2023-02-05T06:18:23.791Z,100737.78
2023-02-05T06:20:51.159Z,100744.34
2023-02-05T06:23:18.314Z,100747.81
2023-02-05T06:25:45.733Z,100745.75
2023-02-05T06:28:12.916Z,100738.41
2023-02-05T06:30:40.187Z,100736.34
2023-02-05T06:33:07.652Z,100737.72
2023-02-05T06:35:35.149Z,100738.53
2023-02-05T06:38:02.421Z,100744.16
2023-02-05T06:40:29.884Z,100745.41
2023-02-05T06:42:57.029Z,100752.78
2023-02-05T06:45:24.166Z,100745.78
2023-02-05T06:47:55.997Z,100743.50
2023-02-05T06:50:23.447Z,100745.13
2023-02-05T06:52:51.305Z,100746.47
2023-02-05T06:55:18.851Z,100758.81
2023-02-05T06:57:46.000Z,100752.78
2023-02-05T07:00:13.956Z,100766.16
2023-02-05T07:02:41.396Z,100772.03
2023-02-05T07:05:08.908Z,100777.81
2023-02-05T07:07:36.041Z,100785.66
2023-02-05T07:10:04.328Z,100775.47
2023-02-05T07:12:31.775Z,100774.16
2023-02-05T07:14:58.950Z,100776.09
2023-02-05T07:17:26.494Z,100781.41
2023-02-05T07:19:55.129Z,100783.38
2023-02-05T07:22:22.315Z,100784.44
2023-02-05T07:24:49.734Z,100787.00
2023-02-05T07:27:16.911Z,100786.53
2023-02-05T07:29:44.051Z,100791.44
2023-02-05T07:32:11.518Z,100799.63
2023-02-05T07:34:38.730Z,100802.00
2023-02-05T07:37:05.877Z,100803.91
2023-02-05T07:39:33.509Z,100799.19
2023-02-05T07:42:00.897Z,100802.00
2023-02-05T07:44:28.569Z,100804.59
2023-02-05T07:46:56.292Z,100799.87
2023-02-05T07:49:23.600Z,100801.78
2023-02-05T07:51:51.798Z,100805.94
2023-02-05T07:54:19.445Z,100803.13
2023-02-05T07:56:46.632Z,100800.78
2023-02-05T07:59:13.748Z,100800.06
2023-02-05T08:01:41.162Z,100802.81
2023-02-05T08:04:08.617Z,100810.09
2023-02-05T08:06:35.828Z,100802.41
2023-02-05T08:09:03.261Z,100806.19
2023-02-05T08:11:32.549Z,100799.44
2023-02-05T08:14:00.702Z,100798.28
2023-02-05T08:16:27.893Z,100801.59
2023-02-05T08:18:55.357Z,100802.72
2023-02-05T08:21:22.630Z,100804.00
2023-02-05T08:23:49.823Z,100796.69
2023-02-05T08:26:17.643Z,100790.84
2023-02-05T08:28:44.870Z,100789.34
2023-02-05T08:31:12.878Z,100792.16
2023-02-05T08:33:40.354Z,100785.03
2023-02-05T08:36:07.751Z,100789.63
2023-02-05T08:38:35.030Z,100785.16
2023-02-05T08:41:12.713Z,100794.34
2023-02-05T08:43:41.197Z,100792.56
2023-02-05T08:46:09.148Z,100787.41
2023-02-05T08:48:36.362Z,100785.94
2023-02-05T08:51:03.938Z,100788.81
2023-02-05T08:53:31.902Z,100792.25
2023-02-05T08:55:59.875Z,100786.53
2023-02-05T08:58:27.478Z,100789.97
2023-02-05T09:01:02.566Z,100794.56
2023-02-05T09:03:30.634Z,100810.75
2023-02-05T09:05:58.495Z,100805.81
2023-02-05T09:08:26.198Z,100809.75
2023-02-05T09:10:53.385Z,100816.37
2023-02-05T09:13:20.837Z,100806.31
2023-02-05T09:15:48.661Z,100801.50
2023-02-05T09:18:15.930Z,100801.44
2023-02-05T09:20:44.631Z,100800.75
2023-02-05T09:23:12.280Z,100801.94
2023-02-05T09:25:58.303Z,100795.12
2023-02-05T09:28:25.717Z,100804.00
2023-02-05T09:30:52.968Z,100805.25
2023-02-05T09:33:20.297Z,100807.59
2023-02-05T09:35:47.704Z,100800.72
2023-02-05T09:38:15.312Z,100802.63
2023-02-05T09:40:56.853Z,100801.94
2023-02-05T09:43:27.561Z,100804.03
2023-02-05T09:45:59.502Z,100799.28
2023-02-05T09:48:49.643Z,100812.38
2023-02-05T09:51:18.862Z,100803.75
2023-02-05T09:53:48.012Z,100811.38
2023-02-05T09:56:15.177Z,100811.09
2023-02-05T09:58:43.672Z,100798.12
2023-02-05T10:01:14.232Z,100807.09
2023-02-05T10:03:47.149Z,100807.09
2023-02-05T10:06:36.369Z,100801.69
2023-02-05T10:09:09.613Z,100799.94
2023-02-05T10:11:40.658Z,100791.28
2023-02-05T10:14:27.199Z,100795.63
2023-02-05T10:17:06.697Z,100790.09
2023-02-05T10:19:43.447Z,100785.19
2023-02-05T10:22:15.096Z,100788.50
2023-02-05T10:24:49.708Z,100782.44
2023-02-05T10:27:21.695Z,100774.28
2023-02-05T10:29:55.172Z,100774.53
2023-02-05T10:32:25.331Z,100775.22
2023-02-05T10:34:54.077Z,100777.47
2023-02-05T10:37:21.911Z,100771.09
2023-02-05T10:39:49.686Z,100776.37
2023-02-05T10:42:28.421Z,100771.00
2023-02-05T10:45:09.101Z,100767.38
2023-02-05T10:47:39.823Z,100770.19
2023-02-05T10:50:07.929Z,100766.56
2023-02-05T10:52:35.142Z,100766.84
2023-02-05T10:55:02.565Z,100762.56
2023-02-05T10:57:30.471Z,100755.28
2023-02-05T11:00:17.309Z,100762.53
2023-02-05T11:02:46.586Z,100761.69
2023-02-05T11:05:19.738Z,100762.37
2023-02-05T11:07:48.038Z,100757.72
2023-02-05T11:10:18.202Z,100757.72
2023-02-05T11:12:46.304Z,100756.31
2023-02-05T11:15:21.715Z,100749.66
2023-02-05T11:17:52.929Z,100752.88
2023-02-05T11:20:20.655Z,100743.91
2023-02-05T11:22:47.860Z,100747.72
2023-02-05T11:25:17.759Z,100746.28
2023-02-05T11:27:57.759Z,100748.22
2023-02-05T11:30:51.923Z,100744.50
2023-02-05T11:33:21.749Z,100737.88
2023-02-05T11:35:49.818Z,100735.09
2023-02-05T11:38:30.131Z,100736.91
2023-02-05T11:40:58.610Z,100729.25
2023-02-05T11:43:49.090Z,100728.19
2023-02-05T11:46:18.072Z,100722.53
2023-02-05T11:48:56.492Z,100709.19
2023-02-05T11:51:36.416Z,100721.34
2023-02-05T11:54:04.432Z,100717.19
2023-02-05T11:56:31.906Z,100707.63
2023-02-05T11:59:00.624Z,100710.94
2023-02-05T12:01:32.689Z,100715.50
2023-02-05T12:04:03.463Z,100716.97
2023-02-05T12:06:43.074Z,100703.81
2023-02-05T12:09:14.831Z,100709.41
2023-02-05T12:12:18.562Z,100696.75
2023-02-05T12:15:06.437Z,100688.09
2023-02-05T12:17:41.558Z,100692.53
2023-02-05T12:20:35.936Z,100681.81
2023-02-05T12:23:22.372Z,100686.53
2023-02-05T12:25:49.863Z,100680.97
2023-02-05T12:28:20.582Z,100696.50
2023-02-05T12:31:02.715Z,100679.16
2023-02-05T12:33:31.770Z,100683.09
2023-02-05T12:36:12.008Z,100681.88
2023-02-05T12:38:48.736Z,100676.47
2023-02-05T12:41:16.222Z,100668.56
2023-02-05T12:43:45.839Z,100670.03
2023-02-05T12:46:13.573Z,100674.22
2023-02-05T12:48:42.181Z,100671.59
2023-02-05T12:51:15.781Z,100676.44
2023-02-05T12:53:55.274Z,100658.31
2023-02-05T12:56:28.670Z,100659.06
2023-02-05T12:58:57.550Z,100665.25
2023-02-05T13:01:30.292Z,100661.16
2023-02-05T13:04:02.385Z,100657.63
2023-02-05T13:06:34.455Z,100648.28
2023-02-05T13:09:07.004Z,100660.87
2023-02-05T13:11:38.001Z,100656.69
2023-02-05T13:14:08.693Z,100655.59
2023-02-05T13:16:37.962Z,100647.84
2023-02-05T13:19:29.633Z,100646.87
2023-02-05T13:22:16.965Z,100649.34
2023-02-05T13:25:11.006Z,100650.28
2023-02-05T13:27:58.440Z,100648.44
2023-02-05T13:30:34.758Z,100645.00
2023-02-05T13:33:04.355Z,100646.13
2023-02-05T13:35:33.293Z,100640.69
2023-02-05T13:38:11.022Z,100642.22
2023-02-05T13:40:58.118Z,100642.28
2023-02-05T13:43:43.727Z,100639.16
2023-02-05T13:46:11.571Z,100640.75
2023-02-05T13:48:45.152Z,100640.78
2023-02-05T13:51:17.752Z,100647.41
2023-02-05T13:53:48.169Z,100643.41
2023-02-05T13:56:42.929Z,100648.19
2023-02-05T13:59:19.209Z,100641.47
2023-02-05T14:01:58.314Z,100651.59
2023-02-05T14:04:28.143Z,100656.69
2023-02-05T14:07:00.947Z,100657.19
2023-02-05T14:09:29.105Z,100650.25
2023-02-05T14:11:59.646Z,100646.00
2023-02-05T14:14:38.423Z,100650.72
2023-02-05T14:17:25.330Z,100640.94
2023-02-05T14:19:56.994Z,100651.47
2023-02-05T14:22:34.880Z,100652.28
2023-02-05T14:25:03.151Z,100654.31
2023-02-05T14:27:38.320Z,100653.87
2023-02-05T14:30:39.134Z,100658.66
2023-02-05T14:33:35.067Z,100652.50
2023-02-05T14:36:09.872Z,100648.34
2023-02-05T14:38:39.295Z,100658.03
2023-02-05T14:41:08.665Z,100656.34
2023-02-05T14:43:37.190Z,100650.75
2023-02-05T14:46:08.035Z,100645.91
2023-02-05T14:48:39.294Z,100646.25
2023-02-05T14:51:28.454Z,100645.03
2023-02-05T14:54:04.719Z,100651.66
2023-02-05T14:56:39.920Z,100647.97
2023-02-05T14:59:18.634Z,100648.91
2023-02-05T15:01:51.151Z,100655.84
2023-02-05T15:04:23.230Z,100651.22
2023-02-05T15:06:51.468Z,100645.91
2023-02-05T15:09:21.028Z,100647.06
2023-02-05T15:11:54.782Z,100657.19
2023-02-05T15:14:31.018Z,100656.78
2023-02-05T15:17:18.870Z,100658.44
2023-02-05T15:19:48.667Z,100660.06
2023-02-05T15:22:19.833Z,100667.78
2023-02-05T15:24:48.863Z,100672.88
2023-02-05T15:27:19.002Z,100666.78
2023-02-05T15:29:51.405Z,100666.47
2023-02-05T15:32:20.925Z,100669.41
2023-02-05T15:34:54.425Z,100665.72
2023-02-05T15:37:27.920Z,100667.87
2023-02-05T15:39:56.229Z,100673.31
2023-02-05T15:42:39.700Z,100672.19
2023-02-05T15:45:18.103Z,100665.06
2023-02-05T15:47:47.580Z,100669.69
2023-02-05T15:50:15.358Z,100669.53
2023-02-05T15:52:43.168Z,100670.06
2023-02-05T15:55:12.796Z,100668.88
2023-02-05T15:57:40.915Z,100677.28
2023-02-05T16:00:09.667Z,100677.97
2023-02-05T16:02:41.475Z,100687.34
2023-02-05T16:05:17.534Z,100682.53
2023-02-05T16:07:48.077Z,100691.44
2023-02-05T16:10:20.081Z,100692.19
2023-02-05T16:13:05.173Z,100700.34
2023-02-05T16:15:33.225Z,100693.41
2023-02-05T16:18:01.406Z,100696.19
2023-02-05T16:20:34.369Z,100693.59
2023-02-05T16:23:05.841Z,100698.97
2023-02-05T16:25:47.396Z,100701.72
2023-02-05T16:28:22.533Z,100706.34
2023-02-05T16:30:51.204Z,100713.75
2023-02-05T16:33:38.304Z,100715.06
2023-02-05T16:36:07.204Z,100716.59
2023-02-05T16:38:35.971Z,100709.88
2023-02-05T16:41:39.249Z,100716.22
2023-02-05T16:44:08.199Z,100713.00
2023-02-05T16:46:36.733Z,100715.97
2023-02-05T16:49:23.485Z,100713.81
2023-02-05T16:51:54.975Z,100719.47
2023-02-05T16:54:32.577Z,100719.09
2023-02-05T16:57:14.540Z,100727.16
2023-02-05T16:59:45.081Z,100727.69
2023-02-05T17:02:21.733Z,100724.50
2023-02-05T17:04:52.849Z,100733.78
2023-02-05T17:07:21.715Z,100745.97
2023-02-05T17:09:50.426Z,100739.28
2023-02-05T17:12:38.806Z,100749.50
2023-02-05T17:15:13.587Z,100751.53
2023-02-05T17:17:47.090Z,100756.22
2023-02-05T17:20:15.586Z,100764.47
2023-02-05T17:23:04.057Z,100768.50
2023-02-05T17:25:35.418Z,100762.81
2023-02-05T17:28:04.312Z,100764.50
2023-02-05T17:30:33.407Z,100769.78
2023-02-05T17:33:02.063Z,100770.94
2023-02-05T17:35:30.668Z,100774.31
2023-02-05T17:37:59.693Z,100773.44
2023-02-05T17:40:28.178Z,100769.78
2023-02-05T17:42:56.502Z,100774.16
2023-02-05T17:45:27.449Z,100770.44
2023-02-05T17:47:55.714Z,100770.19
2023-02-05T17:50:24.640Z,100767.78
2023-02-05T17:52:52.763Z,100774.81
2023-02-05T17:55:22.014Z,100778.56
2023-02-05T17:58:00.318Z,100776.16
2023-02-05T18:00:32.089Z,100778.94
2023-02-05T18:03:00.775Z,100776.84
2023-02-05T18:05:28.524Z,100779.31
2023-02-05T18:08:00.251Z,100774.16
2023-02-05T18:10:31.046Z,100778.91
2023-02-05T18:13:01.860Z,100783.09
2023-02-05T18:15:29.859Z,100789.91
2023-02-05T18:17:59.754Z,100783.31
2023-02-05T18:20:28.096Z,100786.13
2023-02-05T18:22:56.234Z,100793.50
2023-02-05T18:25:24.329Z,100799.75
2023-02-05T18:27:56.854Z,100813.78
2023-02-05T18:30:24.987Z,100833.50
2023-02-05T18:32:53.650Z,100835.44
2023-02-05T18:35:21.882Z,100830.19
2023-02-05T18:37:53.153Z,100833.44
2023-02-05T18:40:20.947Z,100839.03
2023-02-05T18:42:49.629Z,100847.25
2023-02-05T18:45:18.170Z,100852.84
2023-02-05T18:47:46.057Z,100841.53
2023-02-05T18:50:15.197Z,100843.22
2023-02-05T18:52:44.805Z,100849.50
2023-02-05T18:55:13.887Z,100853.72
2023-02-05T18:57:43.055Z,100855.84
2023-02-05T19:00:16.095Z,100854.16
2023-02-05T19:02:44.055Z,100863.84
2023-02-05T19:05:12.687Z,100860.19
2023-02-05T19:07:40.526Z,100861.47
2023-02-05T19:10:08.090Z,100871.97
2023-02-05T19:12:38.693Z,100869.69
2023-02-05T19:15:09.459Z,100872.69
2023-02-05T19:17:39.000Z,100877.06
2023-02-05T19:20:07.840Z,100877.16
2023-02-05T19:22:36.083Z,100880.41
2023-02-05T19:25:04.412Z,100889.50
2023-02-05T19:27:33.174Z,100880.09
2023-02-05T19:30:01.562Z,100877.81
2023-02-05T19:32:29.288Z,100891.16
2023-02-05T19:35:00.101Z,100886.44
2023-02-05T19:37:29.368Z,100882.50
2023-02-05T19:39:57.851Z,100881.88
2023-02-05T19:42:27.716Z,100891.72
2023-02-05T19:44:57.685Z,100893.84
2023-02-05T19:47:28.630Z,100897.56
2023-02-05T19:49:58.257Z,100901.66
2023-02-05T19:52:26.742Z,100901.72
2023-02-05T19:54:54.737Z,100905.22
2023-02-05T19:57:22.902Z,100901.66
2023-02-05T19:59:52.606Z,100908.22
2023-02-05T20:02:21.486Z,100911.06
2023-02-05T20:04:50.358Z,100908.41
2023-02-05T20:07:18.761Z,100907.41
2023-02-05T20:09:47.101Z,100902.63
2023-02-05T20:12:15.789Z,100902.97
2023-02-05T20:14:44.484Z,100913.19
2023-02-05T20:17:16.410Z,100909.13
2023-02-05T20:19:44.929Z,100914.63
2023-02-05T20:22:12.800Z,100919.44
2023-02-05T20:24:40.664Z,100921.47
2023-02-05T20:27:09.368Z,100916.16
2023-02-05T20:29:56.380Z,100926.75
2023-02-05T20:32:24.603Z,100918.81
2023-02-05T20:34:54.313Z,100926.09
2023-02-05T20:37:22.697Z,100923.94
2023-02-05T20:39:51.227Z,100932.22
2023-02-05T20:42:19.025Z,100930.06
2023-02-05T20:44:47.901Z,100930.34
2023-02-05T20:47:17.414Z,100929.00
2023-02-05T20:49:46.258Z,100928.09
2023-02-05T20:52:17.418Z,100934.16
2023-02-05T20:54:46.164Z,100932.06
2023-02-05T20:57:14.543Z,100931.34
2023-02-05T20:59:43.298Z,100933.53
2023-02-05T21:02:14.489Z,100931.25
2023-02-05T21:04:42.414Z,100929.72
2023-02-05T21:07:15.326Z,100936.78
2023-02-05T21:09:44.851Z,100938.87
2023-02-05T21:12:13.062Z,100937.72
2023-02-05T21:14:40.656Z,100944.41
2023-02-05T21:17:10.880Z,100937.47
2023-02-05T21:19:40.544Z,100942.37
2023-02-05T21:22:08.892Z,100944.00
2023-02-05T21:24:37.408Z,100941.87
2023-02-05T21:27:05.149Z,100943.44
2023-02-05T21:29:32.609Z,100943.62
2023-02-05T21:32:00.409Z,100937.09
2023-02-05T21:34:28.096Z,100942.53
2023-02-05T21:36:56.435Z,100947.50
2023-02-05T21:39:25.778Z,100944.25
2023-02-05T21:41:54.275Z,100946.22
2023-02-05T21:44:22.093Z,100955.16
2023-02-05T21:46:49.397Z,100957.44
2023-02-05T21:49:16.711Z,100966.97
2023-02-05T21:51:44.193Z,100969.00
2023-02-05T21:54:11.630Z,100974.75
2023-02-05T21:56:40.844Z,100982.87
2023-02-05T21:59:08.903Z,100975.03
2023-02-05T22:01:36.373Z,100977.81
2023-02-05T22:04:20.008Z,100982.28
2023-02-05T22:06:47.149Z,100986.28
2023-02-05T22:09:15.368Z,100991.44
2023-02-05T22:11:46.325Z,100994.25
2023-02-05T22:14:15.219Z,101001.16
2023-02-05T22:16:42.780Z,101005.72
2023-02-05T22:19:09.967Z,101016.34
2023-02-05T22:21:41.146Z,101020.00
2023-02-05T22:24:10.737Z,101025.31
2023-02-05T22:26:38.804Z,101022.75
2023-02-05T22:29:06.898Z,101026.59
2023-02-05T22:31:34.600Z,101036.59
2023-02-05T22:34:01.808Z,101028.69
2023-02-05T22:36:30.177Z,101025.19
2023-02-05T22:38:57.789Z,101024.13
2023-02-05T22:41:25.791Z,101029.47
2023-02-05T22:43:56.829Z,101032.53
2023-02-05T22:46:25.272Z,101025.72
2023-02-05T22:48:52.845Z,101036.78
2023-02-05T22:51:31.830Z,101029.47
2023-02-05T22:54:00.833Z,101033.78
2023-02-05T22:56:28.249Z,101020.97
2023-02-05T22:58:55.794Z,101021.56
2023-02-05T23:01:24.491Z,101024.00
2023-02-05T23:03:52.122Z,101035.59
2023-02-05T23:06:20.715Z,101026.59
2023-02-05T23:08:55.777Z,101023.41
2023-02-05T23:11:23.148Z,101024.13
2023-02-05T23:13:50.737Z,101029.66
2023-02-05T23:16:19.439Z,101023.31
2023-02-05T23:18:46.961Z,101020.63
2023-02-05T23:21:18.355Z,101027.25
2023-02-05T23:23:45.496Z,101020.84
2023-02-05T23:26:14.094Z,101030.44
2023-02-05T23:28:41.611Z,101036.03
2023-02-05T23:31:08.942Z,101041.56
2023-02-05T23:33:36.570Z,101037.22
2023-02-05T23:36:04.379Z,101037.47
2023-02-05T23:38:31.522Z,101030.75
2023-02-05T23:41:01.090Z,101042.44
2023-02-05T23:43:28.566Z,101044.56
2023-02-05T23:45:55.772Z,101042.56
2023-02-05T23:48:23.015Z,101046.59
2023-02-05T23:50:51.099Z,101041.03
2023-02-05T23:53:21.028Z,101050.47
2023-02-05T23:55:48.873Z,101041.19
2023-02-05T23:58:17.797Z,101037.47
